Time;durP1;ratioP1;P1;durP2;ratioP2;P2;SDS_P1;SDS_P2;PMS_P1;PMS_P2;Temp;Humidity;BMP_temperature;BMP_pressure;BME280_temperature;BME280_humidity;BME280_pressure;Samples;Min_cycle;Max_cycle;Signal;HPM_P1;HPM_P2
2022/06/11 08:27:08;;;;;;;;;;;;;;;23.92;41.80;100521.31;947115;54;23326;-82
2022/06/11 08:28:13;;;;;;;;;;;;;;;23.96;42.18;100523.41;1088547;54;19943;-81
2022/06/11 08:29:14;;;;;;;;;;;;;;;24.27;41.36;100531.78;1088446;54;19966;-81
2022/06/11 08:30:19;;;;;;;;;;;;;;;24.33;41.45;100525.44;1088513;54;20870;-81
2022/06/11 08:31:23;;;;;;;;;;;;;;;24.61;41.71;100524.09;1088458;54;19927;-79
2022/06/11 08:32:24;;;;;;;;;;;;;;;24.81;41.01;100517.59;1088568;54;19943;-80
2022/06/11 08:33:27;;;;;;;;;;;;;;;24.95;39.63;100510.09;1089244;46;19943;-82
2022/06/11 08:34:29;;;;;;;;;;;;;;;24.90;39.45;100519.78;1089929;46;19934;-83
2022/06/11 08:35:33;;;;;;;;;;;;;;;24.95;40.04;100521.03;1090461;46;19946;-81
2022/06/11 08:36:37;;;;;;;;;;;;;;;25.12;40.35;100507.56;1088313;54;19953;-82
2022/06/11 08:37:38;;;;;;;;;;;;;;;25.31;40.09;100509.19;1089357;46;19949;-82
2022/06/11 08:38:42;;;;;;;;;;;;;;;25.41;39.68;100513.31;1091436;46;19942;-85
2022/06/11 08:39:43;;;;;;;;;;;;;;;25.25;39.85;100512.03;1088319;54;19958;-84
2022/06/11 08:40:49;;;;;;;;;;;;;;;25.51;39.49;100510.81;1088783;39;20689;-84
2022/06/11 08:41:50;;;;;;;;;;;;;;;25.76;39.33;100507.09;1088154;54;19943;-83
2022/06/11 08:43:00;;;;;;;;;;;;;;;25.74;38.32;100511.97;1088519;54;19938;-82
2022/06/11 08:44:02;;;;;;;;;;;;;;;25.88;38.65;100504.38;1088532;54;19927;-85
2022/06/11 08:45:08;;;;;;;;;;;;;;;25.86;38.58;100507.38;1088420;54;20879;-81
2022/06/11 08:46:15;;;;;;;;;;;;;;;25.72;39.30;100512.22;1088347;54;19942;-82
2022/06/11 08:47:17;;;;;;;;;;;;;;;25.48;38.85;100509.41;1088257;54;19998;-85
2022/06/11 08:48:36;;;;;;;;;;;;;;;25.40;38.84;100509.72;1088986;46;19934;-85
2022/06/11 08:49:42;;;;;;;;;;;;;;;25.41;38.31;100507.84;1088368;54;19927;-86
2022/06/11 08:50:51;;;;;;;;;;;;;;;25.71;38.11;100507.81;1088449;54;19938;-85
2022/06/11 08:51:57;;;;;;;;;;;;;;;25.78;38.08;100502.22;1088433;54;19943;-82
2022/06/11 08:52:59;;;;;;;;;;;;;;;25.81;37.41;100502.59;1088500;54;20011;-85
2022/06/11 08:54:06;;;;;;;;;;;;;;;26.06;36.65;100496.06;1088474;54;19943;-82
2022/06/11 08:55:11;;;;;;;;;;;;;;;26.22;36.82;100500.03;1088468;54;19938;-85
2022/06/11 08:56:18;;;;;;;;;;;;;;;26.30;36.18;100504.34;1088561;46;19949;-82
2022/06/11 08:57:26;;;;;;;;;;;;;;;26.40;36.54;100499.06;1088138;54;20037;-82
2022/06/11 08:58:41;;;;;;;;;;;;;;;26.68;36.65;100503.00;1088726;46;19938;-87
2022/06/11 08:59:51;;;;;;;;;;;;;;;26.67;36.12;100489.50;1088514;54;20034;-82
2022/06/11 09:00:57;;;;;;;;;;;;;;;26.49;36.15;100499.53;1090325;39;20242;-83
2022/06/11 09:02:06;;;;;;;;;;;;;;;26.70;36.55;100498.06;1088462;54;19950;-83
2022/06/11 09:03:20;;;;;;;;;;;;;;;26.53;36.28;100488.94;1090834;46;19953;-83
2022/06/11 09:04:31;;;;;;;;;;;;;;;26.78;36.13;100496.91;1088448;54;19930;-84
2022/06/11 09:05:41;;;;;;;;;;;;;;;27.03;35.47;100495.75;1088324;54;20018;-83
2022/06/11 09:06:57;;;;;;;;;;;;;;;27.20;35.43;100496.66;1088505;54;19945;-86
2022/06/11 09:08:07;;;;;;;;;;;;;;;27.39;34.93;100494.53;1088491;54;19938;-84
2022/06/11 09:09:11;;;;;;;;;;;;;;;27.63;34.42;100483.44;1088522;54;19946;-84
2022/06/11 09:10:22;;;;;;;;;;;;;;;27.69;34.38;100481.63;1088453;54;19974;-86
2022/06/11 09:11:29;;;;;;;;;;;;;;;27.71;33.67;100490.47;1088416;54;19966;-87
2022/06/11 09:12:48;;;;;;;;;;;;;;;27.63;33.65;100482.63;1088499;54;19950;-85
2022/06/11 09:14:03;;;;;;;;;;;;;;;27.89;33.89;100477.56;1088191;54;19942;-85
2022/06/11 09:16:22;;;;;;;;;;;;;;;28.09;33.44;100479.84;1076673;54;21363;31
2022/06/11 09:17:35;;;;;;;;;;;;;;;28.28;33.28;100472.16;1094394;46;20305;31
2022/06/11 09:27:08;;;;;;;;;;;;;;;27.73;32.78;100470.97;1088571;54;19943;-86
2022/06/11 09:28:13;;;;;;;;;;;;;;;27.74;32.62;100467.16;1088616;54;19927;-88
2022/06/11 09:30:24;;;;;;;;;;;;;;;28.20;32.40;100469.84;1088864;54;19942;-86
2022/06/11 09:31:38;;;;;;;;;;;;;;;28.35;31.62;100472.78;1088516;46;19942;-87
2022/06/11 09:32:42;;;;;;;;;;;;;;;28.56;30.93;100462.06;1094270;46;19927;-87
2022/06/11 09:34:55;;;;;;;;;;;;;;;27.63;29.83;100477.16;1086830;39;20860;-88
2022/06/11 09:37:15;;;;;;;;;;;;;;;27.29;30.78;100469.66;1081454;54;20283;31
2022/06/11 09:41:34;;;;;;;;;;;;;;;27.29;30.69;100468.84;1089023;54;19927;-86
2022/06/11 09:52:20;;;;;;;;;;;;;;;27.88;30.48;100457.50;1088538;54;19945;-86
2022/06/11 09:53:35;;;;;;;;;;;;;;;28.32;30.14;100457.66;1093607;39;20433;-86
2022/06/11 09:54:46;;;;;;;;;;;;;;;28.67;29.49;100452.88;1088550;54;19995;-86
2022/06/11 09:57:02;;;;;;;;;;;;;;;28.38;28.42;100454.97;1088549;54;19927;-87
2022/06/11 09:58:21;;;;;;;;;;;;;;;28.44;28.88;100452.03;1088512;54;19931;-85
2022/06/11 09:59:29;;;;;;;;;;;;;;;27.63;29.71;100471.66;1090033;39;20808;-85
2022/06/11 10:00:35;;;;;;;;;;;;;;;27.90;29.78;100471.00;1088587;47;19934;-85
2022/06/11 10:02:44;;;;;;;;;;;;;;;28.52;29.39;100466.44;1093254;39;20746;-85
2022/06/11 10:03:49;;;;;;;;;;;;;;;28.57;29.02;100461.00;1090678;46;19950;-88
2022/06/11 10:04:53;;;;;;;;;;;;;;;28.74;28.71;100464.53;1092402;46;19927;-86
2022/06/11 10:07:05;;;;;;;;;;;;;;;28.76;28.37;100464.31;1088389;54;19946;-85
2022/06/11 10:08:14;;;;;;;;;;;;;;;28.89;28.62;100465.84;1088450;54;19957;-89
2022/06/11 10:12:30;;;;;;;;;;;;;;;28.33;29.50;100458.50;1088416;54;19919;-86
2022/06/11 10:13:41;;;;;;;;;;;;;;;28.43;29.47;100457.78;1088582;54;19943;-85
2022/06/11 10:14:50;;;;;;;;;;;;;;;28.64;28.48;100456.13;1089859;39;20533;-87
2022/06/11 10:15:53;;;;;;;;;;;;;;;28.37;28.76;100459.63;1088367;54;19939;-85
2022/06/11 10:16:59;;;;;;;;;;;;;;;28.74;28.85;100453.53;1088270;54;19998;-85
2022/06/11 10:18:01;;;;;;;;;;;;;;;28.89;28.53;100463.06;1088230;54;20677;-83
2022/06/11 10:19:14;;;;;;;;;;;;;;;28.92;28.36;100463.41;1087934;54;19942;-83
2022/06/11 10:20:22;;;;;;;;;;;;;;;28.96;28.89;100458.19;1087839;54;19943;-84
2022/06/11 10:21:25;;;;;;;;;;;;;;;29.26;28.54;100454.13;1088956;39;20129;-86
2022/06/11 10:22:32;;;;;;;;;;;;;;;29.07;28.65;100450.88;1093930;39;20802;-85
2022/06/11 10:24:44;;;;;;;;;;;;;;;28.47;28.96;100456.22;1088352;54;19945;-85
2022/06/11 10:25:53;;;;;;;;;;;;;;;28.12;29.42;100460.94;1094802;39;20529;-88
2022/06/11 10:26:59;;;;;;;;;;;;;;;27.87;29.82;100462.16;1088466;54;19943;-85
2022/06/11 10:28:05;;;;;;;;;;;;;;;27.81;29.89;100463.16;1088439;54;19923;-85
2022/06/11 10:30:18;;;;;;;;;;;;;;;27.46;30.55;100464.25;1088404;54;19943;-86
2022/06/11 10:31:22;;;;;;;;;;;;;;;27.78;30.42;100463.66;1088281;54;19950;-85
2022/06/11 10:32:28;;;;;;;;;;;;;;;28.27;29.85;100464.97;1088339;54;19999;-83
2022/06/11 10:33:33;;;;;;;;;;;;;;;28.61;29.35;100465.72;1088344;54;19950;-84
2022/06/11 10:34:40;;;;;;;;;;;;;;;28.52;29.33;100459.00;1088604;46;19946;-85
2022/06/11 10:35:45;;;;;;;;;;;;;;;28.51;29.90;100464.78;1088139;54;20027;-84
2022/06/11 10:36:53;;;;;;;;;;;;;;;28.74;29.23;100463.72;1088208;54;19943;-87
2022/06/11 10:38:01;;;;;;;;;;;;;;;28.35;29.75;100456.28;1088161;54;19933;-87
2022/06/11 10:39:07;;;;;;;;;;;;;;;28.52;29.69;100460.94;1088292;54;19949;-86
2022/06/11 10:40:19;;;;;;;;;;;;;;;28.61;29.37;100457.47;1089279;39;20535;-86
2022/06/11 10:41:26;;;;;;;;;;;;;;;29.00;29.25;100462.09;1088266;54;19966;-86
2022/06/11 10:42:35;;;;;;;;;;;;;;;28.70;29.21;100460.63;1088355;54;19990;-85
2022/06/11 10:43:40;;;;;;;;;;;;;;;28.88;29.69;100464.16;1088369;54;19942;-86
2022/06/11 10:44:47;;;;;;;;;;;;;;;29.08;29.19;100460.81;1088263;54;19985;-85
2022/06/11 10:45:48;;;;;;;;;;;;;;;28.93;29.35;100459.56;1090876;39;20448;-86
2022/06/11 10:46:52;;;;;;;;;;;;;;;28.74;29.56;100464.53;1088174;54;19987;-85
2022/06/11 10:47:55;;;;;;;;;;;;;;;28.52;29.20;100463.69;1088239;54;19942;-86
2022/06/11 10:50:07;;;;;;;;;;;;;;;28.85;28.98;100460.00;1088434;54;19943;-87
2022/06/11 10:55:27;;;;;;;;;;;;;;;29.34;29.21;100448.16;1092877;39;20740;-85
2022/06/11 10:56:39;;;;;;;;;;;;;;;29.38;28.59;100452.03;1088279;54;19943;31
2022/06/11 10:59:53;;;;;;;;;;;;;;;28.67;29.04;100454.81;1088318;54;19946;-84
2022/06/11 11:00:55;;;;;;;;;;;;;;;28.53;29.29;100449.69;1088471;54;20038;-86
2022/06/11 11:03:04;;;;;;;;;;;;;;;28.35;30.25;100444.47;1088557;54;19977;-86
2022/06/11 11:06:20;;;;;;;;;;;;;;;28.32;29.81;100441.16;1088418;54;19930;-87
2022/06/11 11:07:21;;;;;;;;;;;;;;;28.15;30.01;100441.19;1088564;54;19966;-85
2022/06/11 11:08:25;;;;;;;;;;;;;;;28.20;29.65;100437.69;1091029;46;19962;-86
2022/06/11 11:12:42;;;;;;;;;;;;;;;28.41;30.07;100435.22;1094085;39;20550;-87
2022/06/11 11:17:00;;;;;;;;;;;;;;;29.18;29.96;100433.38;1088426;54;19937;-87
2022/06/11 11:24:25;;;;;;;;;;;;;;;28.92;29.83;100426.78;1088753;54;19942;-87
2022/06/11 11:25:28;;;;;;;;;;;;;;;28.66;30.22;100423.72;1088500;54;19991;-86
2022/06/11 11:29:53;;;;;;;;;;;;;;;29.14;29.90;100420.41;1088491;54;19933;-88
2022/06/11 11:30:59;;;;;;;;;;;;;;;29.04;29.66;100424.72;1088403;54;19942;-87
2022/06/11 11:35:18;;;;;;;;;;;;;;;28.69;30.14;100419.59;1088932;54;19923;-86
2022/06/11 11:38:29;;;;;;;;;;;;;;;28.79;30.46;100423.38;1088445;54;19957;-86
2022/06/11 11:39:30;;;;;;;;;;;;;;;28.92;30.20;100418.53;1088521;54;20465;-84
2022/06/11 11:45:55;;;;;;;;;;;;;;;27.99;31.86;100409.91;1089004;54;19926;-88
2022/06/11 11:58:37;;;;;;;;;;;;;;;28.01;31.89;100415.13;1088710;54;19965;-85
2022/06/11 12:01:54;;;;;;;;;;;;;;;28.09;31.75;100397.44;1080818;54;19950;31
2022/06/11 12:04:08;;;;;;;;;;;;;;;28.02;31.51;100403.06;1089825;46;19971;-84
2022/06/11 12:05:11;;;;;;;;;;;;;;;27.79;31.63;100402.16;1088804;54;19930;-86
2022/06/11 12:15:52;;;;;;;;;;;;;;;27.53;32.61;100406.44;1089016;54;19927;-87
2022/06/11 12:18:02;;;;;;;;;;;;;;;27.58;32.45;100397.44;1088630;54;19943;-88
2022/06/11 12:19:06;;;;;;;;;;;;;;;27.64;32.36;100397.25;1088695;54;19943;-85
2022/06/11 12:33:54;;;;;;;;;;;;;;;27.85;31.90;100392.94;1088564;54;19939;-85
2022/06/11 12:46:50;;;;;;;;;;;;;;;28.08;31.63;100382.03;1087069;54;19949;31
2022/06/11 12:51:12;;;;;;;;;;;;;;;28.22;31.66;100380.56;1080245;54;20019;31
2022/06/11 12:54:47;;;;;;;;;;;;;;;28.04;31.68;100378.91;1082359;54;19971;-88
2022/06/11 12:59:14;;;;;;;;;;;;;;;27.91;32.11;100379.25;1088726;54;20053;-86
2022/06/11 13:00:31;;;;;;;;;;;;;;;27.95;32.16;100385.94;1075322;54;19950;31
2022/06/11 13:06:01;;;;;;;;;;;;;;;27.63;32.60;100383.78;1088596;54;20645;-86
2022/06/11 13:08:33;;;;;;;;;;;;;;;27.63;32.42;100387.34;1089125;54;19934;-85
2022/06/11 13:10:43;;;;;;;;;;;;;;;27.53;32.72;100379.81;1084588;54;19949;-86
2022/06/11 13:13:08;;;;;;;;;;;;;;;27.70;32.46;100378.97;1084956;54;19946;-84
2022/06/11 13:15:28;;;;;;;;;;;;;;;28.00;32.25;100375.00;1088531;54;19946;-86
2022/06/11 13:16:37;;;;;;;;;;;;;;;28.05;31.94;100380.59;1088784;54;19942;-85
2022/06/11 13:18:59;;;;;;;;;;;;;;;27.97;32.16;100379.09;1089106;54;19934;-85
2022/06/11 13:21:10;;;;;;;;;;;;;;;27.64;32.66;100380.78;1089056;54;19927;-87
2022/06/11 13:22:19;;;;;;;;;;;;;;;27.49;32.57;100377.81;1090663;46;19933;-87
2022/06/11 13:25:40;;;;;;;;;;;;;;;27.75;32.17;100376.31;1089143;54;19923;-85
2022/06/11 13:27:54;;;;;;;;;;;;;;;27.62;32.49;100374.75;1089089;54;19923;-85
2022/06/11 13:29:05;;;;;;;;;;;;;;;27.54;32.51;100380.63;1092902;46;19919;-88
2022/06/11 13:31:26;;;;;;;;;;;;;;;27.70;32.40;100376.22;1089121;54;19931;-88
2022/06/11 13:33:42;;;;;;;;;;;;;;;27.95;32.32;100377.69;1089146;54;19927;-86
2022/06/11 13:35:53;;;;;;;;;;;;;;;27.76;32.20;100355.16;1088875;54;19934;-85
2022/06/11 13:38:11;;;;;;;;;;;;;;;27.93;31.89;100363.38;1088982;54;19943;-87
2022/06/11 13:41:27;;;;;;;;;;;;;;;28.12;32.11;100364.78;1074954;54;19969;31
2022/06/11 13:42:36;;;;;;;;;;;;;;;28.17;31.63;100362.06;1080871;46;20772;-85
2022/06/11 13:43:49;;;;;;;;;;;;;;;28.22;31.35;100357.75;1075352;39;20029;31
2022/06/11 13:59:31;;;;;;;;;;;;;;;28.47;30.67;100347.06;1078186;54;19946;-84
2022/06/11 14:10:25;;;;;;;;;;;;;;;30.02;28.75;100334.66;1088328;54;19950;-85
2022/06/11 14:15:51;;;;;;;;;;;;;;;30.77;27.77;100328.03;1080496;54;19947;-87
2022/06/11 14:20:49;;;;;;;;;;;;;;;30.87;27.27;100324.47;1088380;54;19965;-85
2022/06/11 14:21:51;;;;;;;;;;;;;;;30.90;27.60;100323.09;1088438;54;19943;-85
2022/06/11 14:22:57;;;;;;;;;;;;;;;30.87;27.29;100318.97;1090628;39;20632;-83
2022/06/11 14:24:01;;;;;;;;;;;;;;;30.74;27.23;100327.75;1088627;54;20503;-85
2022/06/11 14:25:02;;;;;;;;;;;;;;;30.37;27.20;100326.78;1088608;54;20654;-85
2022/06/11 14:26:07;;;;;;;;;;;;;;;30.34;27.40;100330.94;1088529;54;19945;-84
2022/06/11 14:36:07;;;;;;;;;;;;;;;30.85;26.75;100336.88;1085987;54;19927;-85
2022/06/11 14:37:29;;;;;;;;;;;;;;;31.10;26.56;100331.41;1080349;54;20685;31
2022/06/11 14:40:42;;;;;;;;;;;;;;;31.73;26.21;100327.50;1083840;54;19931;-85
2022/06/11 14:41:50;;;;;;;;;;;;;;;31.46;25.62;100325.03;1085773;54;19939;-84
2022/06/11 14:43:06;;;;;;;;;;;;;;;31.36;26.10;100322.31;1078452;54;19946;31
2022/06/11 15:05:20;;;;;;;;;;;;;;;30.92;26.66;100324.47;1089230;39;20586;-83
2022/06/11 15:06:40;;;;;;;;;;;;;;;30.64;27.04;100329.41;1088229;54;19969;-82
2022/06/11 15:07:56;;;;;;;;;;;;;;;30.93;26.57;100320.59;1088307;54;19926;-86
2022/06/11 15:09:08;;;;;;;;;;;;;;;31.00;26.31;100317.59;1088298;54;19978;-87
2022/06/11 15:10:17;;;;;;;;;;;;;;;31.19;26.33;100311.53;1088330;54;19938;-84
2022/06/11 15:11:22;;;;;;;;;;;;;;;31.29;26.33;100322.59;1088325;54;19949;-87
2022/06/11 15:12:46;;;;;;;;;;;;;;;31.25;26.30;100315.94;1088533;54;19987;-89
2022/06/11 15:14:08;;;;;;;;;;;;;;;31.27;26.25;100320.09;1088066;54;20878;-87
2022/06/11 15:15:22;;;;;;;;;;;;;;;31.18;25.96;100320.94;1088002;54;20006;-86
2022/06/11 15:16:25;;;;;;;;;;;;;;;31.26;26.13;100326.72;1087700;54;19935;-87
2022/06/11 15:17:38;;;;;;;;;;;;;;;31.22;26.22;100314.56;1089301;46;19942;-84
2022/06/11 15:18:41;;;;;;;;;;;;;;;31.37;25.95;100313.75;1087752;54;20095;-87
2022/06/11 15:19:48;;;;;;;;;;;;;;;31.08;25.71;100316.22;1088165;54;19946;-85
2022/06/11 15:20:54;;;;;;;;;;;;;;;31.09;26.54;100318.69;1089094;39;20518;-86
2022/06/11 15:22:00;;;;;;;;;;;;;;;30.77;26.64;100308.72;1088102;54;19942;-87
2022/06/11 15:23:04;;;;;;;;;;;;;;;30.55;26.91;100306.19;1088287;54;19930;-85
2022/06/11 15:24:12;;;;;;;;;;;;;;;30.32;27.04;100316.56;1088292;54;19923;-86
2022/06/11 15:25:16;;;;;;;;;;;;;;;30.32;27.40;100310.25;1089906;46;19926;-84
2022/06/11 15:26:21;;;;;;;;;;;;;;;30.38;27.39;100311.09;1088181;54;19990;-85
2022/06/11 15:27:23;;;;;;;;;;;;;;;30.28;27.38;100309.97;1088220;54;19941;-87
2022/06/11 15:28:27;;;;;;;;;;;;;;;30.06;27.58;100312.06;1088178;54;19926;-88
2022/06/11 15:29:29;;;;;;;;;;;;;;;29.88;28.18;100311.41;1088161;54;19963;-86
2022/06/11 15:30:34;;;;;;;;;;;;;;;29.97;27.94;100320.84;1088105;54;19943;-88
2022/06/11 15:31:39;;;;;;;;;;;;;;;29.89;28.08;100313.06;1088044;54;19946;-87
2022/06/11 15:32:41;;;;;;;;;;;;;;;29.75;28.16;100309.97;1088094;54;20754;-87
2022/06/11 15:33:45;;;;;;;;;;;;;;;29.46;28.13;100320.53;1088016;54;19926;-85
2022/06/11 15:34:54;;;;;;;;;;;;;;;29.52;27.94;100312.00;1087544;54;19949;-85
2022/06/11 15:36:11;;;;;;;;;;;;;;;29.59;27.95;100314.53;1087860;54;19959;-86
2022/06/11 15:37:22;;;;;;;;;;;;;;;29.59;28.29;100303.53;1089056;46;19923;-86
2022/06/11 15:38:31;;;;;;;;;;;;;;;29.60;28.31;100307.13;1087959;54;19943;-86
2022/06/11 15:39:38;;;;;;;;;;;;;;;29.50;28.27;100308.72;1088009;54;19927;-86
2022/06/11 15:40:40;;;;;;;;;;;;;;;29.54;28.25;100298.81;1088068;47;19939;-85
2022/06/11 15:41:45;;;;;;;;;;;;;;;29.48;28.38;100304.56;1088053;54;19942;-87
2022/06/11 15:42:46;;;;;;;;;;;;;;;29.52;28.17;100308.44;1087976;54;19930;-86
2022/06/11 15:43:52;;;;;;;;;;;;;;;29.30;28.71;100306.59;1088021;54;19949;-86
2022/06/11 15:44:54;;;;;;;;;;;;;;;29.33;28.63;100303.38;1087927;54;19942;-85
2022/06/11 15:45:59;;;;;;;;;;;;;;;29.22;28.93;100309.84;1087998;54;19942;-88
2022/06/11 15:47:15;;;;;;;;;;;;;;;29.32;28.67;100301.69;1088805;47;19950;-86
2022/06/11 15:48:21;;;;;;;;;;;;;;;29.05;29.19;100302.56;1088104;54;19926;-85
2022/06/11 15:49:25;;;;;;;;;;;;;;;29.09;29.05;100298.22;1088064;54;19926;-87
2022/06/11 15:50:29;;;;;;;;;;;;;;;29.03;29.06;100302.00;1087981;54;19926;-85
2022/06/11 15:51:36;;;;;;;;;;;;;;;29.00;29.21;100304.44;1087755;54;19943;-87
2022/06/11 15:52:38;;;;;;;;;;;;;;;29.13;29.08;100301.25;1087487;54;19950;-86
2022/06/11 15:55:16;;;;;;;;;;;;;;;29.18;29.15;100298.53;1089548;46;20006;-85
2022/06/11 15:56:18;;;;;;;;;;;;;;;29.11;29.19;100304.25;1088313;54;19999;-86
2022/06/11 15:57:32;;;;;;;;;;;;;;;29.18;28.93;100301.28;1088201;54;19950;-85
2022/06/11 15:58:38;;;;;;;;;;;;;;;29.19;28.96;100293.88;1088285;54;19927;-86
2022/06/11 15:59:39;;;;;;;;;;;;;;;29.20;29.21;100295.50;1088298;54;19943;-85
2022/06/11 16:00:48;;;;;;;;;;;;;;;29.17;28.95;100296.88;1088227;54;19938;-85
2022/06/11 16:01:51;;;;;;;;;;;;;;;29.02;29.20;100300.31;1088280;54;19948;-86
2022/06/11 16:02:56;;;;;;;;;;;;;;;29.03;29.33;100296.50;1088261;54;19942;-85
2022/06/11 16:04:00;;;;;;;;;;;;;;;29.02;29.15;100294.81;1088205;54;19943;-85
2022/06/11 16:05:02;;;;;;;;;;;;;;;28.88;29.47;100299.13;1087724;54;19954;-87
2022/06/11 16:06:06;;;;;;;;;;;;;;;28.70;29.55;100289.28;1087878;47;21129;-86
2022/06/11 16:07:17;;;;;;;;;;;;;;;28.87;29.50;100297.44;1088224;54;19931;-85
2022/06/11 16:08:22;;;;;;;;;;;;;;;28.91;29.49;100298.56;1088278;54;19949;-85
2022/06/11 16:09:28;;;;;;;;;;;;;;;28.94;29.09;100307.16;1088035;54;19952;-84
2022/06/11 16:10:31;;;;;;;;;;;;;;;28.94;29.13;100309.06;1091315;31;20732;-86
2022/06/11 16:12:38;;;;;;;;;;;;;;;28.81;28.88;100304.00;1088264;54;19958;-84
2022/06/11 16:13:40;;;;;;;;;;;;;;;28.84;28.85;100297.97;1088555;47;19946;-84
2022/06/11 16:14:47;;;;;;;;;;;;;;;28.75;28.86;100295.69;1088275;54;19977;-84
2022/06/11 16:15:49;;;;;;;;;;;;;;;28.77;29.42;100299.00;1088521;47;19927;-87
2022/06/11 16:16:54;;;;;;;;;;;;;;;28.78;29.32;100291.59;1088364;54;19937;-87
2022/06/11 16:17:56;;;;;;;;;;;;;;;28.71;29.31;100293.72;1088404;54;19945;-87
2022/06/11 16:19:22;;;;;;;;;;;;;;;28.56;29.39;100291.59;1088304;54;19938;-86
2022/06/11 16:21:29;;;;;;;;;;;;;;;28.32;29.65;100308.41;1088277;54;19946;-86
2022/06/11 16:22:37;;;;;;;;;;;;;;;28.41;29.65;100306.88;1088284;54;19943;-86
2022/06/11 16:23:42;;;;;;;;;;;;;;;28.41;29.54;100297.78;1088329;54;19922;-88
2022/06/11 16:24:45;;;;;;;;;;;;;;;28.47;29.35;100294.81;1088324;54;19946;-87
2022/06/11 16:25:50;;;;;;;;;;;;;;;28.57;29.39;100298.78;1088228;54;20205;-86
2022/06/11 16:26:53;;;;;;;;;;;;;;;28.58;29.32;100298.50;1088071;54;19934;-87
2022/06/11 16:27:58;;;;;;;;;;;;;;;28.63;29.26;100297.72;1088859;47;19938;-87
2022/06/11 16:28:59;;;;;;;;;;;;;;;28.68;29.21;100303.28;1087856;54;19942;-85
2022/06/11 16:30:05;;;;;;;;;;;;;;;28.74;29.18;100299.53;1088093;54;19942;-87
2022/06/11 16:32:15;;;;;;;;;;;;;;;28.62;29.26;100301.59;1086521;54;19934;-85
2022/06/11 16:33:18;;;;;;;;;;;;;;;28.64;29.35;100302.13;1088305;54;19966;-85
2022/06/11 16:34:24;;;;;;;;;;;;;;;28.62;29.15;100307.09;1088570;54;19950;-86
2022/06/11 16:36:35;;;;;;;;;;;;;;;28.42;29.41;100307.69;1088369;54;19947;-87
2022/06/11 16:37:42;;;;;;;;;;;;;;;28.42;29.55;100303.03;1088216;54;19943;-85
2022/06/11 16:38:50;;;;;;;;;;;;;;;28.33;29.13;100299.91;1088190;54;20010;-87
2022/06/11 16:39:54;;;;;;;;;;;;;;;28.41;29.55;100304.13;1088199;54;19927;-84
2022/06/11 16:40:59;;;;;;;;;;;;;;;28.49;29.36;100300.06;1088150;54;19935;-86
2022/06/11 16:43:24;;;;;;;;;;;;;;;28.30;29.30;100305.06;1089782;39;20509;-85
2022/06/11 16:44:27;;;;;;;;;;;;;;;28.17;29.84;100301.63;1094405;31;20573;-86
2022/06/11 16:46:34;;;;;;;;;;;;;;;28.13;29.60;100302.41;1088266;54;19942;-84
2022/06/11 16:47:42;;;;;;;;;;;;;;;28.13;29.44;100300.50;1088884;46;19950;-85
2022/06/11 16:48:50;;;;;;;;;;;;;;;28.23;29.59;100301.69;1088175;54;19948;-85
2022/06/11 16:59:43;;;;;;;;;;;;;;;28.44;29.47;100297.25;1089187;54;19934;-82
2022/06/11 17:07:27;;;;;;;;;;;;;;;28.44;29.40;100289.00;1089077;54;19927;-85
2022/06/11 17:11:40;;;;;;;;;;;;;;;28.54;29.52;100293.78;1088637;54;19953;-86
